Time;durP1;ratioP1;P1;durP2;ratioP2;P2;SDS_P1;SDS_P2;PMS_P1;PMS_P2;Temp;Humidity;BMP_temperature;BMP_pressure;BME280_temperature;BME280_humidity;BME280_pressure;Samples;Min_cycle;Max_cycle;Signal;HPM_P1;HPM_P2
2022/01/10 00:00:30;;;;;;;4.67;4.21;;;;;;;3.66;69.53;100413.67;441802;118;922522;-78
2022/01/10 00:01:33;;;;;;;5.66;5.16;;;;;;;3.66;69.49;100414.52;441423;118;930624;-77
2022/01/10 00:02:38;;;;;;;4.90;3.77;;;;;;;3.67;69.43;100415.36;441758;118;930556;-77
2022/01/10 00:03:43;;;;;;;4.25;3.85;;;;;;;3.67;69.40;100410.81;435020;121;930570;-77
2022/01/10 00:04:46;;;;;;;4.71;4.31;;;;;;;3.66;69.42;100411.82;434535;120;928882;-77
2022/01/10 00:05:50;;;;;;;4.93;3.91;;;;;;;3.66;69.37;100411.82;435074;120;930332;-76
2022/01/10 00:06:53;;;;;;;4.47;4.08;;;;;;;3.65;69.31;100411.98;434760;120;923088;-78
2022/01/10 00:07:56;;;;;;;5.26;4.03;;;;;;;3.63;69.37;100412.19;434325;120;930599;-77
2022/01/10 00:09:00;;;;;;;4.54;4.14;;;;;;;3.62;69.45;100410.50;434834;121;930479;-78
2022/01/10 00:10:04;;;;;;;5.34;4.26;;;;;;;3.62;69.46;100412.35;440942;118;922589;-77
2022/01/10 00:11:07;;;;;;;4.69;4.22;;;;;;;3.63;69.46;100412.19;441752;118;922629;-77
2022/01/10 00:12:11;;;;;;;4.66;4.22;;;;;;;3.63;69.45;100412.19;434521;120;922447;-77
2022/01/10 00:13:14;;;;;;;4.25;3.78;;;;;;;3.63;69.54;100409.48;441239;118;922795;-77
2022/01/10 00:14:17;;;;;;;5.74;4.64;;;;;;;3.66;69.58;100413.67;442132;118;922906;-77
2022/01/10 00:15:21;;;;;;;4.75;4.23;;;;;;;3.68;69.49;100411.66;442379;118;922550;-77
2022/01/10 00:16:25;;;;;;;5.82;4.64;;;;;;;3.68;69.46;100408.96;441245;117;922636;-77
2022/01/10 00:17:28;;;;;;;5.04;4.58;;;;;;;3.67;69.39;100405.42;441846;118;922647;-77
2022/01/10 00:18:32;;;;;;;4.06;3.69;;;;;;;3.68;69.44;100406.27;435461;120;922522;-76
2022/01/10 00:19:35;;;;;;;5.22;3.83;;;;;;;3.69;69.48;100406.06;435605;120;922746;-76
2022/01/10 00:20:39;;;;;;;4.59;4.15;;;;;;;3.69;69.48;100403.37;434424;120;930511;-77
2022/01/10 00:21:42;;;;;;;4.93;4.27;;;;;;;3.70;69.49;100404.22;441129;118;930564;-77
2022/01/10 00:22:49;;;;;;;9.40;4.47;;;;;;;3.71;69.43;100408.59;441643;117;922667;-77
2022/01/10 00:23:52;;;;;;;4.21;3.72;;;;;;;3.70;69.40;100407.75;441765;118;922519;-77
2022/01/10 00:24:55;;;;;;;4.72;4.26;;;;;;;3.73;69.58;100401.19;433154;120;923088;-78
2022/01/10 00:25:59;;;;;;;4.74;3.67;;;;;;;3.73;69.58;100401.19;432946;120;930482;-75
2022/01/10 00:27:02;;;;;;;5.83;4.28;;;;;;;3.73;69.40;100404.73;441066;118;923116;-77
2022/01/10 00:28:06;;;;;;;5.59;3.56;;;;;;;3.73;69.36;100407.42;441867;118;922445;-77
2022/01/10 00:29:09;;;;;;;4.99;3.38;;;;;;;3.71;69.30;100404.05;434922;120;922945;-77
2022/01/10 00:30:13;;;;;;;5.63;3.94;;;;;;;3.71;69.33;100404.05;441072;118;922394;-77
2022/01/10 00:31:17;;;;;;;4.97;3.72;;;;;;;3.71;69.36;100403.20;433307;120;923144;-77
2022/01/10 00:32:22;;;;;;;4.97;3.66;;;;;;;3.71;69.44;100398.66;433560;120;930436;-76
2022/01/10 00:33:26;;;;;;;4.72;4.19;;;;;;;3.74;69.45;100401.02;433722;120;922634;-76
2022/01/10 00:34:29;;;;;;;4.34;3.62;;;;;;;3.75;69.41;100396.44;438709;118;922589;-76
2022/01/10 00:35:33;;;;;;;4.26;3.85;;;;;;;3.76;69.33;100404.36;457576;113;930560;-77
2022/01/10 00:36:36;;;;;;;4.42;4.02;;;;;;;3.77;69.30;100407.90;456973;113;923139;-77
2022/01/10 00:37:42;;;;;;;3.61;3.31;;;;;;;3.77;69.31;100406.05;450135;116;930490;-77
2022/01/10 00:38:45;;;;;;;3.95;3.59;;;;;;;3.80;69.32;100398.63;456260;113;922611;-77
2022/01/10 00:39:49;;;;;;;4.45;4.01;;;;;;;3.82;69.33;100402.82;457350;114;922630;-77
2022/01/10 00:40:53;;;;;;;5.09;4.23;;;;;;;3.85;69.30;100396.25;456719;114;922607;-76
2022/01/10 00:41:57;;;;;;;6.06;4.26;;;;;;;3.87;69.28;100402.28;459751;113;922584;-77
2022/01/10 00:43:01;;;;;;;7.21;4.35;;;;;;;3.90;69.30;100392.01;458262;113;930502;-77
2022/01/10 00:44:04;;;;;;;6.06;3.78;;;;;;;3.93;69.28;100390.80;458739;113;922437;-77
2022/01/10 00:45:17;;;;;;;6.28;4.07;;;;;;;3.95;69.22;100392.31;459436;113;922505;-77
2022/01/10 00:46:22;;;;;;;4.37;3.96;;;;;;;3.98;69.19;100388.41;458554;113;930552;-78
2022/01/10 00:47:25;;;;;;;5.18;3.81;;;;;;;3.99;69.14;100385.54;458438;113;922733;-78
2022/01/10 00:48:29;;;;;;;6.04;4.49;;;;;;;4.02;69.10;100393.30;457430;113;922755;-76
2022/01/10 00:49:32;;;;;;;4.91;4.10;;;;;;;4.03;69.04;100386.02;458046;113;930583;-77
2022/01/10 00:50:36;;;;;;;4.30;3.90;;;;;;;4.03;68.96;100384.16;458964;113;922921;-77
2022/01/10 00:51:40;;;;;;;4.05;3.52;;;;;;;4.05;68.90;100383.99;457263;113;930464;-77
2022/01/10 00:52:43;;;;;;;6.24;3.94;;;;;;;4.05;68.81;100376.73;457671;113;922542;-77
2022/01/10 00:53:50;;;;;;;6.76;3.92;;;;;;;4.04;68.76;100377.75;456830;113;923386;-77
2022/01/10 00:54:52;;;;;;;6.31;4.06;;;;;;;4.04;68.76;100377.75;458530;113;931104;-76
2022/01/10 00:55:56;;;;;;;4.71;3.79;;;;;;;4.04;68.69;100383.15;457853;113;922678;-77
2022/01/10 00:56:59;;;;;;;4.17;3.35;;;;;;;4.04;68.69;100377.75;458141;113;922983;-77
2022/01/10 00:58:03;;;;;;;4.11;3.54;;;;;;;4.05;68.71;100368.65;450489;116;930676;-76
2022/01/10 00:59:06;;;;;;;4.71;3.81;;;;;;;4.05;68.62;100365.95;457308;113;922520;-76
2022/01/10 01:00:12;;;;;;;4.26;3.85;;;;;;;4.06;68.61;100372.19;456911;113;931022;-77
2022/01/10 01:01:18;;;;;;;4.83;3.99;;;;;;;4.05;68.62;100360.55;449399;116;923706;-76
2022/01/10 01:02:23;;;;;;;5.36;3.33;;;;;;;4.07;68.63;100365.78;448397;113;923043;-78
2022/01/10 01:03:26;;;;;;;4.40;3.84;;;;;;;4.09;68.62;100367.27;458423;113;922644;-77
2022/01/10 01:04:30;;;;;;;3.90;3.53;;;;;;;4.11;68.60;100364.40;457868;113;922622;-76
2022/01/10 01:05:38;;;;;;;4.92;3.67;;;;;;;4.12;68.51;100369.63;459959;113;922725;-77
2022/01/10 01:06:38;;;;;;;5.41;4.27;;;;;;;4.13;68.46;100362.37;457242;113;923114;-77
2022/01/10 01:07:42;;;;;;;6.76;4.54;;;;;;;4.13;68.42;100365.91;458666;113;922415;-77
2022/01/10 01:08:46;;;;;;;6.30;4.81;;;;;;;4.14;68.40;100364.88;460274;113;930649;-76
2022/01/10 01:10:01;;;;;;;5.42;4.50;;;;;;;4.15;68.38;100357.62;457912;113;930533;-75
2022/01/10 01:11:28;;;;;;;5.22;4.74;;;;;;;4.15;68.30;100358.46;457139;113;922586;-76
2022/01/10 01:12:28;;;;;;;7.52;4.92;;;;;;;4.16;68.25;100351.20;457931;113;923496;-77
2022/01/10 01:13:29;;;;;;;5.89;5.29;;;;;;;4.17;68.20;100355.59;455148;113;922465;-77
2022/01/10 01:14:52;;;;;;;5.86;5.23;;;;;;;4.15;68.17;100352.22;456807;113;922886;-77
2022/01/10 01:17:14;;;;;;;6.62;5.18;;;;;;;4.14;68.16;100340.59;458162;113;922716;-77
2022/01/10 01:18:30;;;;;;;6.36;5.36;;;;;;;4.13;68.13;100333.53;456950;113;925687;-77
2022/01/10 01:24:33;;;;;;;6.86;5.19;;;;;;;4.04;68.06;100337.28;456425;113;922984;-78
2022/01/10 01:25:36;;;;;;;5.58;5.11;;;;;;;4.02;67.98;100342.04;457163;113;922492;-76
2022/01/10 01:26:43;;;;;;;6.87;5.07;;;;;;;3.98;68.03;100338.00;458419;113;930731;-77
2022/01/10 01:27:51;;;;;;;7.93;5.29;;;;;;;3.98;68.15;100335.30;458752;113;924049;-77
2022/01/10 01:28:53;;;;;;;7.42;5.13;;;;;;;3.96;68.22;100337.36;457546;113;922544;-77
2022/01/10 01:29:57;;;;;;;7.35;5.94;;;;;;;3.97;68.22;100341.70;458705;113;922683;-77
2022/01/10 01:31:00;;;;;;;9.99;5.97;;;;;;;3.97;68.24;100327.41;458281;113;930460;-76
2022/01/10 01:32:04;;;;;;;8.39;6.54;;;;;;;3.96;68.17;100340.05;458216;113;930582;-77
2022/01/10 01:33:08;;;;;;;7.44;5.77;;;;;;;3.95;68.14;100338.37;457045;113;930485;-78
2022/01/10 01:34:14;;;;;;;7.79;5.96;;;;;;;3.93;68.08;100340.39;457732;113;922812;-77
2022/01/10 01:35:23;;;;;;;6.93;4.74;;;;;;;3.90;68.07;100339.92;459042;113;930749;-78
2022/01/10 01:36:25;;;;;;;6.44;5.18;;;;;;;3.88;68.15;100350.88;457748;113;922576;-77
2022/01/10 01:37:29;;;;;;;7.79;5.24;;;;;;;3.87;68.17;100353.73;457469;113;922688;-77
2022/01/10 01:38:33;;;;;;;8.16;5.34;;;;;;;3.86;68.19;100350.20;457249;113;922503;-77
2022/01/10 01:39:36;;;;;;;10.04;5.22;;;;;;;3.86;68.23;100355.59;458063;113;922952;-78
2022/01/10 01:40:47;;;;;;;7.01;5.39;;;;;;;3.87;68.28;100351.05;457168;113;930692;-77
2022/01/10 01:41:45;;;;;;;4.65;4.21;;;;;;;3.89;68.28;100354.42;457346;113;922516;-77
2022/01/10 01:42:49;;;;;;;6.82;4.54;;;;;;;3.88;68.25;100352.73;456383;113;922924;-77
2022/01/10 01:43:53;;;;;;;7.71;4.47;;;;;;;3.88;68.21;100352.73;457061;113;930504;-78
2022/01/10 01:44:57;;;;;;;9.98;4.19;;;;;;;3.87;68.21;100349.19;455885;114;930625;-78
2022/01/10 01:46:00;;;;;;;6.17;3.71;;;;;;;3.86;68.19;100349.39;454937;114;930728;-77
2022/01/10 01:47:04;;;;;;;5.52;4.00;;;;;;;3.84;68.14;100352.25;456331;113;926593;-77
2022/01/10 01:48:07;;;;;;;6.17;4.20;;;;;;;3.81;68.17;100355.29;457113;113;930642;-77
2022/01/10 01:49:12;;;;;;;5.32;3.84;;;;;;;3.80;68.24;100355.48;456489;113;922487;-78
2022/01/10 01:50:16;;;;;;;5.52;4.01;;;;;;;3.77;68.32;100349.42;455622;113;922693;-77
2022/01/10 01:51:20;;;;;;;5.96;4.56;;;;;;;3.79;68.39;100349.25;458103;113;922583;-77
2022/01/10 01:52:23;;;;;;;6.35;4.29;;;;;;;3.80;68.45;100344.70;457838;113;922555;-77
2022/01/10 01:53:26;;;;;;;6.55;4.09;;;;;;;3.82;68.44;100343.49;458907;113;922789;-77
2022/01/10 01:54:30;;;;;;;5.99;5.04;;;;;;;3.85;68.48;100350.41;458813;113;922502;-77
2022/01/10 01:55:33;;;;;;;9.00;5.03;;;;;;;3.87;68.52;100342.95;457952;113;922549;-76
2022/01/10 01:56:38;;;;;;;6.36;4.08;;;;;;;3.89;68.51;100344.47;458001;113;930533;-77
2022/01/10 01:57:42;;;;;;;5.34;4.68;;;;;;;3.91;68.41;100344.30;458486;113;923088;-78
2022/01/10 01:58:46;;;;;;;6.36;4.01;;;;;;;3.91;68.38;100344.30;458321;113;922572;-77
2022/01/10 01:59:50;;;;;;;9.59;4.54;;;;;;;3.91;68.30;100347.84;458442;113;930647;-77
2022/01/10 02:00:55;;;;;;;5.08;4.36;;;;;;;3.92;68.25;100340.56;457738;113;923333;-77
2022/01/10 02:01:58;;;;;;;4.46;3.84;;;;;;;3.91;68.18;100347.00;458031;113;930767;-77
2022/01/10 02:03:02;;;;;;;5.53;3.82;;;;;;;3.88;68.20;100340.09;458253;113;922744;-77
2022/01/10 02:04:07;;;;;;;4.58;4.11;;;;;;;3.87;68.23;100345.65;455793;114;922700;-78
2022/01/10 02:05:11;;;;;;;7.15;4.04;;;;;;;3.88;68.28;100347.34;456417;114;922690;-77
2022/01/10 02:06:16;;;;;;;4.55;4.17;;;;;;;3.86;68.21;100344.80;457889;113;922622;-77
2022/01/10 02:07:19;;;;;;;4.71;4.08;;;;;;;3.85;68.24;100348.55;457515;113;922987;-76
2022/01/10 02:08:23;;;;;;;4.40;3.46;;;;;;;3.85;68.28;100353.09;457193;113;930799;-75
2022/01/10 02:09:26;;;;;;;5.20;3.89;;;;;;;3.84;68.31;100344.16;457325;113;930741;-76
2022/01/10 02:10:30;;;;;;;4.58;4.17;;;;;;;3.86;68.31;100344.00;455274;114;922530;-75
2022/01/10 02:11:34;;;;;;;4.72;3.67;;;;;;;3.85;68.31;100342.31;455551;113;922736;-76
2022/01/10 02:12:37;;;;;;;16.82;3.84;;;;;;;3.87;68.29;100349.19;455848;113;922572;-77
2022/01/10 02:13:44;;;;;;;5.67;4.58;;;;;;;3.87;68.29;100340.25;456820;113;922746;-76
2022/01/10 02:14:52;;;;;;;5.02;4.32;;;;;;;3.88;68.26;100331.16;456124;113;922534;-77
2022/01/10 02:16:05;;;;;;;5.16;4.33;;;;;;;3.88;68.34;100337.39;458065;113;923032;-77
2022/01/10 02:17:06;;;;;;;6.99;4.19;;;;;;;3.89;68.41;100335.53;459010;113;923402;-77
2022/01/10 02:18:18;;;;;;;;;;;;;;;3.92;68.43;100335.16;461265;113;922282;-77
2022/01/10 02:19:25;;;;;;;4.64;3.94;;;;;;;3.92;68.43;100327.92;459223;113;922353;-76
2022/01/10 02:20:31;;;;;;;5.03;4.46;;;;;;;3.94;68.47;100328.59;458743;113;923193;-76
2022/01/10 02:21:36;;;;;;;6.63;4.67;;;;;;;3.94;68.46;100320.50;457627;113;923022;-75
2022/01/10 02:22:39;;;;;;;5.94;4.98;;;;;;;3.96;68.49;100323.03;458515;113;922566;-76
2022/01/10 02:23:47;;;;;;;7.84;4.26;;;;;;;3.97;68.50;100325.52;455232;113;922672;-76
2022/01/10 02:24:53;;;;;;;5.87;4.49;;;;;;;3.99;68.46;100319.95;457816;113;923169;-76
2022/01/10 02:25:57;;;;;;;5.10;4.22;;;;;;;4.01;68.42;100321.47;458449;113;922539;-76
2022/01/10 02:27:02;;;;;;;5.34;4.33;;;;;;;4.02;68.32;100327.71;457330;113;922713;-76
2022/01/10 02:28:06;;;;;;;7.17;4.83;;;;;;;4.02;68.30;100315.06;457847;113;923164;-76
2022/01/10 02:29:10;;;;;;;5.48;4.77;;;;;;;4.03;68.27;100319.41;458052;113;922506;-76
2022/01/10 02:30:15;;;;;;;5.53;4.81;;;;;;;4.04;68.23;100322.95;456852;113;922702;-77
2022/01/10 02:31:18;;;;;;;5.20;4.70;;;;;;;4.04;68.21;100315.70;457406;113;930580;-76
2022/01/10 02:32:22;;;;;;;5.08;4.58;;;;;;;4.05;68.15;100322.78;457652;113;922895;-77
2022/01/10 02:33:28;;;;;;;4.79;4.37;;;;;;;4.05;68.10;100319.25;456997;113;922636;-77
2022/01/10 02:34:32;;;;;;;8.54;5.46;;;;;;;4.04;68.07;100322.95;457327;113;922505;-76
2022/01/10 02:35:46;;;;;;;5.16;4.41;;;;;;;4.04;68.09;100317.56;456743;113;922586;-76
2022/01/10 02:36:44;;;;;;;7.52;4.94;;;;;;;4.05;68.09;100321.94;457997;113;923042;-76
2022/01/10 02:37:49;;;;;;;9.65;5.06;;;;;;;4.04;68.07;100313.01;457069;113;922678;-76
2022/01/10 02:38:58;;;;;;;6.94;5.37;;;;;;;4.04;68.07;100326.49;456736;113;923070;-74
2022/01/10 02:40:06;;;;;;;5.52;4.87;;;;;;;4.05;68.04;100325.48;455967;113;922421;-79
2022/01/10 02:41:09;;;;;;;6.70;5.58;;;;;;;4.05;68.04;100325.48;447230;117;923466;-77
2022/01/10 02:42:13;;;;;;;6.18;4.64;;;;;;;4.05;68.07;100322.78;447213;115;922666;-76
2022/01/10 02:43:18;;;;;;;6.11;5.21;;;;;;;4.07;68.04;100325.31;458706;113;922577;-75
2022/01/10 02:44:22;;;;;;;5.43;4.91;;;;;;;4.06;68.04;100329.86;449170;116;930601;-76
2022/01/10 02:45:26;;;;;;;7.91;5.06;;;;;;;4.06;67.97;100327.17;442294;117;922588;-79
2022/01/10 02:46:35;;;;;;;8.48;5.70;;;;;;;4.06;67.96;100320.93;442843;116;923369;-77
2022/01/10 02:47:40;;;;;;;14.20;5.79;;;;;;;4.04;67.92;100329.20;451364;113;922674;-77
2022/01/10 02:48:44;;;;;;;7.87;6.14;;;;;;;4.04;67.91;100334.59;457744;113;922636;-77
2022/01/10 02:49:47;;;;;;;5.94;5.24;;;;;;;4.02;67.85;100328.55;458169;113;922425;-77
2022/01/10 02:50:51;;;;;;;6.75;5.86;;;;;;;4.01;67.82;100329.56;459442;113;923189;-76
2022/01/10 02:51:57;;;;;;;7.14;5.34;;;;;;;3.99;67.89;100326.20;456862;113;923347;-76
2022/01/10 02:53:01;;;;;;;6.18;5.56;;;;;;;3.99;67.96;100330.75;458013;113;922438;-77
2022/01/10 02:54:07;;;;;;;8.22;6.00;;;;;;;3.98;67.99;100324.52;457814;113;922728;-77
2022/01/10 02:55:12;;;;;;;6.89;5.68;;;;;;;4.00;68.00;100327.04;457429;113;930506;-78
2022/01/10 02:56:16;;;;;;;6.07;5.46;;;;;;;4.00;68.01;100324.34;456756;113;922972;-76
2022/01/10 02:57:19;;;;;;;5.54;4.64;;;;;;;4.00;68.05;100324.34;448638;116;923186;-78
2022/01/10 02:58:23;;;;;;;6.20;5.67;;;;;;;4.02;68.03;100330.41;448311;115;923136;-78
2022/01/10 02:59:27;;;;;;;6.84;5.10;;;;;;;4.02;68.04;100325.86;457610;113;922545;-77
2022/01/10 03:00:30;;;;;;;5.64;5.16;;;;;;;4.03;68.02;100316.72;457019;113;930568;-77
2022/01/10 03:01:33;;;;;;;5.36;4.81;;;;;;;4.04;67.97;100322.95;457182;113;930629;-77
2022/01/10 03:02:41;;;;;;;6.83;5.01;;;;;;;4.03;67.93;100326.66;456100;113;930602;-78
2022/01/10 03:03:44;;;;;;;6.07;5.47;;;;;;;4.03;67.96;100323.97;456716;113;923050;-77
2022/01/10 03:04:48;;;;;;;5.41;4.86;;;;;;;4.03;67.96;100314.02;456610;113;923212;-78
2022/01/10 03:05:52;;;;;;;5.30;4.86;;;;;;;4.03;67.93;100315.88;459248;113;923338;-76
2022/01/10 03:06:56;;;;;;;6.14;4.97;;;;;;;4.03;67.95;100322.11;459060;113;922517;-76
2022/01/10 03:08:02;;;;;;;6.96;5.79;;;;;;;4.03;67.86;100319.41;459218;113;922552;-75
2022/01/10 03:09:06;;;;;;;5.62;5.12;;;;;;;4.03;67.83;100322.11;459371;113;930445;-76
2022/01/10 03:10:11;;;;;;;6.68;5.12;;;;;;;4.02;67.87;100323.16;449881;115;923442;-77
2022/01/10 03:11:14;;;;;;;6.32;4.71;;;;;;;4.02;67.93;100322.31;450978;113;922593;-76
2022/01/10 03:12:18;;;;;;;9.84;5.24;;;;;;;4.02;67.94;100320.45;459167;113;930504;-76
2022/01/10 03:13:22;;;;;;;6.31;4.73;;;;;;;4.02;67.97;100320.45;457951;113;923011;-76
2022/01/10 03:14:25;;;;;;;5.59;5.09;;;;;;;4.03;67.92;100323.97;458109;113;922977;-77
2022/01/10 03:15:29;;;;;;;5.61;4.73;;;;;;;4.02;67.92;100316.92;457450;113;922749;-77
2022/01/10 03:16:34;;;;;;;6.32;4.79;;;;;;;4.02;67.92;100320.45;458149;113;922594;-76
2022/01/10 03:17:38;;;;;;;6.28;4.76;;;;;;;4.02;67.89;100319.62;457539;113;931041;-77
2022/01/10 03:18:41;;;;;;;5.06;4.22;;;;;;;4.00;67.88;100322.48;457451;113;922562;-77
2022/01/10 03:19:45;;;;;;;4.94;4.50;;;;;;;4.01;67.88;100323.33;457825;113;922555;-77
2022/01/10 03:20:48;;;;;;;4.64;4.25;;;;;;;4.00;67.87;100321.64;458642;113;922522;-77
2022/01/10 03:21:52;;;;;;;5.39;4.90;;;;;;;3.99;67.86;100322.66;457374;113;922559;-76
2022/01/10 03:22:56;;;;;;;7.03;4.60;;;;;;;3.98;67.88;100327.20;457535;113;930647;-76
2022/01/10 03:23:59;;;;;;;4.71;4.28;;;;;;;3.98;67.90;100318.27;457400;113;930519;-76
2022/01/10 03:25:04;;;;;;;5.59;4.66;;;;;;;3.97;67.91;100327.41;456782;113;922843;-77
2022/01/10 03:26:07;;;;;;;4.43;4.03;;;;;;;3.96;67.92;100318.48;456888;113;930638;-78
2022/01/10 03:27:12;;;;;;;7.58;4.35;;;;;;;3.96;67.95;100318.48;456786;113;922438;-77
2022/01/10 03:28:16;;;;;;;4.42;4.01;;;;;;;3.96;67.98;100315.78;456606;113;922678;-78
2022/01/10 03:29:20;;;;;;;5.09;4.58;;;;;;;3.95;67.93;100327.58;456313;113;923186;-75
2022/01/10 03:30:24;;;;;;;5.76;5.13;;;;;;;3.94;67.96;100320.50;457289;113;930455;-78
2022/01/10 03:31:28;;;;;;;5.56;4.58;;;;;;;3.94;67.98;100317.80;459440;113;922891;-75
2022/01/10 03:32:32;;;;;;;6.64;5.38;;;;;;;3.94;67.96;100320.50;458346;113;922573;-77
2022/01/10 03:33:37;;;;;;;5.47;4.99;;;;;;;3.93;67.98;100321.52;456653;113;930626;-76
2022/01/10 03:34:41;;;;;;;5.32;4.92;;;;;;;3.93;68.00;100324.20;458853;113;922861;-77
2022/01/10 03:35:45;;;;;;;6.01;5.41;;;;;;;3.93;68.02;100324.20;454386;113;922580;-77
2022/01/10 03:36:55;;;;;;;6.53;4.62;;;;;;;3.93;68.06;100324.20;451704;115;922850;-75
2022/01/10 03:38:00;;;;;;;4.82;4.42;;;;;;;3.93;68.07;100324.20;450489;115;923165;-76
2022/01/10 03:39:06;;;;;;;4.70;4.28;;;;;;;3.93;68.08;100326.06;451922;115;930475;-77
2022/01/10 03:40:11;;;;;;;4.87;4.47;;;;;;;3.93;68.08;100318.81;452019;115;923127;-76
2022/01/10 03:41:14;;;;;;;5.39;4.89;;;;;;;3.93;68.09;100320.67;451687;115;922448;-76
2022/01/10 03:42:18;;;;;;;4.55;4.22;;;;;;;3.93;68.07;100323.37;452035;115;930650;-77
2022/01/10 03:43:21;;;;;;;5.04;4.49;;;;;;;3.91;68.09;100318.17;451608;115;930598;-75
2022/01/10 03:44:25;;;;;;;4.48;4.11;;;;;;;3.91;68.07;100317.33;451625;115;930547;-75
2022/01/10 03:45:29;;;;;;;4.48;4.07;;;;;;;3.91;68.09;100317.33;449917;116;923014;-78
2022/01/10 03:46:33;;;;;;;4.99;4.49;;;;;;;3.90;68.08;100326.44;450824;115;930618;-76
2022/01/10 03:47:37;;;;;;;4.29;3.67;;;;;;;3.90;68.11;100321.88;450692;115;930563;-77
2022/01/10 03:48:40;;;;;;;4.58;4.18;;;;;;;3.89;68.17;100314.80;450348;115;922781;-76
2022/01/10 03:49:44;;;;;;;4.68;4.17;;;;;;;3.89;68.13;100319.36;450152;115;922964;-77
2022/01/10 03:50:48;;;;;;;4.52;4.13;;;;;;;3.88;68.14;100310.42;441678;118;922998;-78
2022/01/10 03:51:52;;;;;;;4.54;4.14;;;;;;;3.88;68.15;100321.20;441742;118;922970;-75
2022/01/10 03:52:57;;;;;;;4.80;4.34;;;;;;;3.88;68.19;100323.91;449595;115;930753;-77
2022/01/10 03:54:00;;;;;;;4.88;4.23;;;;;;;3.89;68.22;100330.14;449696;115;922659;-76
2022/01/10 03:55:05;;;;;;;4.48;4.10;;;;;;;3.88;68.24;100317.67;449509;115;930478;-79
2022/01/10 03:56:09;;;;;;;4.85;4.38;;;;;;;3.88;68.23;100309.58;451795;115;930500;-76
2022/01/10 03:57:12;;;;;;;5.49;4.59;;;;;;;3.88;68.24;100323.06;453613;115;930610;-75
2022/01/10 03:58:15;;;;;;;4.62;4.16;;;;;;;3.87;68.20;100318.68;451690;115;930566;-77
2022/01/10 03:59:20;;;;;;;5.08;4.60;;;;;;;3.86;68.20;100330.52;451465;116;922593;-77
2022/01/10 04:00:23;;;;;;;4.85;4.38;;;;;;;3.84;68.27;100322.59;440803;118;930445;-77
2022/01/10 04:01:27;;;;;;;4.63;4.27;;;;;;;3.83;68.28;100323.59;436847;120;930673;-75
2022/01/10 04:02:32;;;;;;;4.61;4.22;;;;;;;3.84;68.34;100324.44;441290;119;922620;-76
2022/01/10 04:03:39;;;;;;;5.24;4.77;;;;;;;3.84;68.35;100327.14;438209;119;922972;-77
2022/01/10 04:04:44;;;;;;;5.96;5.36;;;;;;;3.84;68.33;100333.38;435294;120;922594;-77
2022/01/10 04:05:49;;;;;;;4.39;3.99;;;;;;;3.83;68.37;100320.91;435282;120;923436;-78
2022/01/10 04:06:53;;;;;;;5.92;5.15;;;;;;;3.83;68.42;100326.30;435393;119;922539;-77
2022/01/10 04:07:56;;;;;;;4.43;3.98;;;;;;;3.83;68.39;100320.06;442728;118;922842;-77
2022/01/10 04:09:00;;;;;;;5.08;4.59;;;;;;;3.82;68.39;100321.07;442222;118;922893;-77
2022/01/10 04:10:05;;;;;;;5.44;4.75;;;;;;;3.81;68.40;100322.92;442327;118;922508;-77
2022/01/10 04:11:08;;;;;;;4.29;3.89;;;;;;;3.81;68.33;100324.78;442273;119;922457;-76
2022/01/10 04:12:12;;;;;;;5.05;4.65;;;;;;;3.79;68.41;100327.68;441896;119;922630;-76
2022/01/10 04:13:15;;;;;;;4.56;4.09;;;;;;;3.77;68.43;100333.23;441435;118;930589;-79
2022/01/10 04:14:19;;;;;;;6.22;4.62;;;;;;;3.76;68.47;100334.25;441848;118;930908;-75
2022/01/10 04:15:23;;;;;;;4.82;4.36;;;;;;;3.75;68.44;100329.03;441839;118;930633;-77
2022/01/10 04:16:26;;;;;;;9.28;4.16;;;;;;;3.72;68.44;100332.94;440264;119;931126;-78
2022/01/10 04:17:29;;;;;;;5.31;4.24;;;;;;;3.71;68.52;100331.25;441357;118;930603;-77
2022/01/10 04:18:33;;;;;;;4.90;4.36;;;;;;;3.70;68.53;100343.05;440570;118;930624;-78
2022/01/10 04:19:37;;;;;;;5.46;4.96;;;;;;;3.69;68.48;100335.16;443469;119;922624;-79
2022/01/10 04:20:41;;;;;;;4.98;4.35;;;;;;;3.67;68.55;100332.63;443218;118;930560;-79
2022/01/10 04:21:44;;;;;;;4.92;4.54;;;;;;;3.67;68.62;100335.33;443040;118;931019;-76
2022/01/10 04:22:48;;;;;;;5.02;4.62;;;;;;;3.68;68.66;100334.31;433561;120;922784;-76
2022/01/10 04:23:51;;;;;;;4.37;3.97;;;;;;;3.68;68.67;100333.47;435675;118;922847;-76
2022/01/10 04:24:55;;;;;;;4.51;4.11;;;;;;;3.68;68.70;100333.47;435396;120;930562;-77
2022/01/10 04:25:58;;;;;;;4.57;4.17;;;;;;;3.66;68.76;100336.33;434557;120;930588;-79
2022/01/10 04:27:02;;;;;;;5.15;4.73;;;;;;;3.67;68.81;100329.09;435177;120;922816;-77
2022/01/10 04:28:06;;;;;;;5.10;4.65;;;;;;;3.67;68.82;100332.63;435841;120;923277;-77
2022/01/10 04:29:09;;;;;;;6.11;4.75;;;;;;;3.68;68.81;100337.01;452283;115;922689;-78
2022/01/10 04:30:13;;;;;;;4.61;4.25;;;;;;;3.67;68.86;100338.02;451999;115;922677;-76
2022/01/10 04:31:17;;;;;;;5.44;4.94;;;;;;;3.68;68.91;100339.70;450882;115;930623;-77
2022/01/10 04:32:21;;;;;;;5.32;4.82;;;;;;;3.69;68.91;100337.85;452329;115;922617;-77
2022/01/10 04:33:29;;;;;;;5.90;5.01;;;;;;;3.70;68.93;100337.65;451380;115;923069;-77
2022/01/10 04:34:31;;;;;;;4.85;4.44;;;;;;;3.70;68.92;100340.34;449710;116;923117;-76
2022/01/10 04:35:35;;;;;;;4.49;4.17;;;;;;;3.71;68.93;100342.03;445468;114;922723;-77
2022/01/10 04:36:40;;;;;;;6.13;4.97;;;;;;;3.72;68.92;100335.63;454435;113;925445;-77
2022/01/10 04:37:44;;;;;;;5.12;4.72;;;;;;;3.73;68.91;100341.87;459120;113;923173;-76
2022/01/10 04:38:47;;;;;;;4.82;4.37;;;;;;;3.73;68.87;100340.02;449885;115;922751;-76
2022/01/10 04:39:51;;;;;;;4.24;3.85;;;;;;;3.74;68.84;100344.39;450397;114;930693;-77
2022/01/10 04:40:55;;;;;;;5.04;4.54;;;;;;;3.75;68.82;100350.59;458012;113;922953;-77
2022/01/10 04:41:58;;;;;;;4.67;4.27;;;;;;;3.75;68.82;100345.20;458297;113;930699;-76
2022/01/10 04:43:02;;;;;;;4.91;4.51;;;;;;;3.74;68.85;100349.79;451311;115;922677;-76
2022/01/10 04:44:07;;;;;;;8.48;4.42;;;;;;;3.74;68.86;100352.48;451094;114;922852;-76
2022/01/10 04:45:11;;;;;;;5.87;5.37;;;;;;;3.75;68.86;100362.23;458302;113;930517;-76
2022/01/10 04:46:15;;;;;;;5.89;5.37;;;;;;;3.76;68.85;100352.28;460397;113;922528;-76
2022/01/10 04:47:19;;;;;;;5.12;4.62;;;;;;;3.77;68.89;100348.58;452163;115;922769;-76
2022/01/10 04:48:22;;;;;;;4.89;4.31;;;;;;;3.77;68.86;100344.03;451974;114;923026;-77
2022/01/10 04:49:26;;;;;;;4.91;4.34;;;;;;;3.78;68.87;100350.27;459383;113;922661;-77
2022/01/10 04:51:52;;;;;;;4.64;4.27;;;;;;;3.79;68.87;100354.64;460161;113;922728;-75
2022/01/10 04:52:55;;;;;;;4.46;3.86;;;;;;;3.80;68.84;100350.09;459071;113;923339;-78
2022/01/10 04:53:59;;;;;;;4.75;4.35;;;;;;;3.80;68.84;100352.80;458786;113;922785;-76
2022/01/10 04:55:04;;;;;;;4.34;4.01;;;;;;;3.77;68.86;100352.11;452111;115;922786;-76
2022/01/10 04:56:08;;;;;;;4.78;4.23;;;;;;;3.78;68.83;100358.35;453979;113;922952;-75
2022/01/10 04:57:11;;;;;;;5.37;4.50;;;;;;;3.78;68.86;100356.50;459288;113;922840;-76
2022/01/10 04:58:15;;;;;;;5.14;4.68;;;;;;;3.79;68.89;100357.34;449397;116;922634;-78
2022/01/10 04:59:19;;;;;;;4.59;4.06;;;;;;;3.80;68.88;100358.19;444133;118;930517;-77
2022/01/10 05:00:25;;;;;;;4.52;4.18;;;;;;;3.80;68.86;100360.88;444989;117;930579;-76
2022/01/10 05:01:28;;;;;;;4.47;3.94;;;;;;;3.80;68.84;100352.80;441281;118;930638;-76
2022/01/10 05:02:34;;;;;;;5.43;3.94;;;;;;;3.80;68.82;100352.80;440432;118;922955;-78
2022/01/10 05:03:38;;;;;;;4.87;4.42;;;;;;;3.77;68.80;100353.97;446802;117;922665;-77
2022/01/10 05:04:41;;;;;;;5.08;4.52;;;;;;;3.76;68.79;100358.52;441144;118;923181;-76
2022/01/10 05:05:45;;;;;;;4.53;4.12;;;;;;;3.76;68.83;100349.59;441902;118;922596;-76
2022/01/10 05:06:48;;;;;;;4.56;4.15;;;;;;;3.74;68.81;100354.34;441609;118;930661;-77